TAM8149 LPPT-SBGR
Flight info
| Callsign | TAM8149 |
|---|---|
| Flight time | N/A |
| Altitude | 31000 |
| Route | BEVOP DCT BAROK UN873 SAMAR N873 ODEGI/N0485F320 N873 IPERA UN873 SADBA/N0488F340 UN873 NTL DCT OPTUR DCT ASGIK UZ21 USIPA/N0478F360 UZ21 VUNOX |
| Aircraft | B77W/H-SDE1E2E3FGHIJ2J3J4J5M1RWXY/LB1D1 |
Departure
| Time | 2026-05-05 14:52 |
|---|---|
| Airport | Lisbon Humberto Delgado Airport (LPPT) |
Arrival
| Time | N/A |
|---|---|
| Airport | São Paulo/Guarulhos–Governor André Franco Montoro International Airport (SBGR) |
| Time | Latitude | Longitude | Altitude | Speed | Heading |
|---|---|---|---|---|---|
| 2026-05-05 13:57 | 38.77487 | -9.13176 | 346 ft | 0 kts | 78° |
| 2026-05-05 14:04 | 38.77487 | -9.13177 | 342 ft | 0 kts | 78° |
| 2026-05-05 14:14 | 38.77487 | -9.13178 | 342 ft | 0 kts | 78° |
| 2026-05-05 14:25 | 38.77487 | -9.13179 | 342 ft | 0 kts | 78° |
| 2026-05-05 14:36 | 38.77487 | -9.13180 | 342 ft | 0 kts | 78° |
| 2026-05-05 14:38 | 38.77486 | -9.13180 | 342 ft | 0 kts | 78° |
| 2026-05-05 14:40 | 38.77483 | -9.13198 | 356 ft | 3 kts | 78° |
| 2026-05-05 14:41 | 38.77478 | -9.13232 | 352 ft | 4 kts | 82° |
| 2026-05-05 14:41 | 38.77479 | -9.13265 | 351 ft | 3 kts | 112° |
| 2026-05-05 14:41 | 38.77493 | -9.13292 | 353 ft | 4 kts | 148° |
| 2026-05-05 14:41 | 38.77507 | -9.13300 | 354 ft | 5 kts | 168° |
| 2026-05-05 14:44 | 38.77506 | -9.13300 | 354 ft | 0 kts | 168° |
| 2026-05-05 14:45 | 38.77493 | -9.13296 | 354 ft | 7 kts | 168° |
| 2026-05-05 14:45 | 38.77422 | -9.13277 | 348 ft | 8 kts | 168° |
| 2026-05-05 14:45 | 38.77365 | -9.13270 | 349 ft | 9 kts | 198° |
| 2026-05-05 14:45 | 38.77327 | -9.13330 | 352 ft | 9 kts | 250° |
| 2026-05-05 14:46 | 38.77312 | -9.13406 | 349 ft | 9 kts | 257° |
| 2026-05-05 14:46 | 38.77298 | -9.13482 | 352 ft | 9 kts | 257° |
| 2026-05-05 14:46 | 38.77283 | -9.13578 | 356 ft | 16 kts | 258° |
| 2026-05-05 14:46 | 38.77258 | -9.13739 | 362 ft | 18 kts | 259° |
| 2026-05-05 14:47 | 38.77205 | -9.13856 | 367 ft | 17 kts | 208° |
| 2026-05-05 14:47 | 38.77070 | -9.13931 | 363 ft | 23 kts | 203° |
| 2026-05-05 14:47 | 38.76912 | -9.14016 | 360 ft | 28 kts | 202° |
| 2026-05-05 14:47 | 38.76787 | -9.14084 | 356 ft | 18 kts | 203° |
| 2026-05-05 14:48 | 38.76683 | -9.14140 | 353 ft | 6 kts | 202° |
| 2026-05-05 14:48 | 38.76667 | -9.14148 | 351 ft | 0 kts | 202° |
| 2026-05-05 14:48 | 38.76665 | -9.14149 | 351 ft | 3 kts | 202° |
| 2026-05-05 14:48 | 38.76614 | -9.14176 | 351 ft | 13 kts | 202° |
| 2026-05-05 14:49 | 38.76540 | -9.14222 | 354 ft | 0 kts | 230° |
| 2026-05-05 14:50 | 38.76536 | -9.14250 | 353 ft | 8 kts | 266° |
| 2026-05-05 14:50 | 38.76566 | -9.14367 | 336 ft | 14 kts | 311° |
| 2026-05-05 14:50 | 38.76661 | -9.14379 | 338 ft | 13 kts | 21° |
| 2026-05-05 14:50 | 38.76679 | -9.14370 | 353 ft | 0 kts | 22° |
| 2026-05-05 14:51 | 38.76700 | -9.14359 | 351 ft | 14 kts | 22° |
| 2026-05-05 14:51 | 38.76965 | -9.14219 | 359 ft | 74 kts | 22° |
| 2026-05-05 14:51 | 38.77632 | -9.13862 | 374 ft | 132 kts | 22° |
| 2026-05-05 14:52 | 38.78627 | -9.13327 | 366 ft | 179 kts | 24° |
| 2026-05-05 14:52 | 38.79847 | -9.12655 | 653 ft | 192 kts | 19° |
| 2026-05-05 14:52 | 38.81058 | -9.11903 | 1186 ft | 193 kts | 24° |
| 2026-05-05 14:52 | 38.82219 | -9.11077 | 1770 ft | 192 kts | 25° |
| 2026-05-05 14:53 | 38.83401 | -9.10231 | 2170 ft | 201 kts | 25° |
| 2026-05-05 14:53 | 38.84648 | -9.09307 | 2375 ft | 218 kts | 25° |
| 2026-05-05 14:53 | 38.86032 | -9.08257 | 2523 ft | 242 kts | 26° |
| 2026-05-05 14:53 | 38.87416 | -9.07005 | 2910 ft | 252 kts | 46° |
| 2026-05-05 14:54 | 38.88241 | -9.04965 | 3467 ft | 268 kts | 77° |
| 2026-05-05 14:54 | 38.88101 | -9.02547 | 4049 ft | 278 kts | 107° |
| 2026-05-05 14:54 | 38.87292 | -9.00341 | 4832 ft | 275 kts | 116° |
| 2026-05-05 14:54 | 38.86288 | -8.98258 | 5371 ft | 280 kts | 129° |
| 2026-05-05 14:55 | 38.84670 | -8.96831 | 5801 ft | 287 kts | 164° |
| 2026-05-05 14:55 | 38.82714 | -8.96684 | 6444 ft | 283 kts | 193° |
| 2026-05-05 14:55 | 38.80859 | -8.97515 | 6972 ft | 281 kts | 205° |
| 2026-05-05 14:55 | 38.79040 | -8.98494 | 7412 ft | 287 kts | 205° |
| 2026-05-05 14:56 | 38.77179 | -8.99496 | 7987 ft | 292 kts | 206° |
| 2026-05-05 14:56 | 38.75293 | -9.00517 | 8594 ft | 292 kts | 205° |
| 2026-05-05 14:56 | 38.73415 | -9.01532 | 9175 ft | 296 kts | 205° |
| 2026-05-05 14:56 | 38.71525 | -9.02552 | 9811 ft | 299 kts | 206° |
| 2026-05-05 14:57 | 38.69580 | -9.03598 | 10352 ft | 304 kts | 206° |
| 2026-05-05 14:57 | 38.67592 | -9.04671 | 10557 ft | 322 kts | 206° |
| 2026-05-05 14:57 | 38.65455 | -9.05823 | 10718 ft | 342 kts | 206° |
| 2026-05-05 14:57 | 38.63207 | -9.07030 | 10890 ft | 363 kts | 205° |
| 2026-05-05 14:58 | 38.60808 | -9.08312 | 11176 ft | 379 kts | 205° |
| 2026-05-05 14:58 | 38.58362 | -9.09616 | 11733 ft | 388 kts | 205° |
| 2026-05-05 14:58 | 38.55841 | -9.10957 | 12445 ft | 393 kts | 205° |
| 2026-05-05 14:58 | 38.53296 | -9.12309 | 13288 ft | 395 kts | 205° |
| 2026-05-05 14:59 | 38.50778 | -9.13648 | 14092 ft | 398 kts | 206° |
| 2026-05-05 14:59 | 38.48205 | -9.15017 | 14818 ft | 401 kts | 206° |
| 2026-05-05 14:59 | 38.45613 | -9.16395 | 15576 ft | 403 kts | 206° |
| 2026-05-05 14:59 | 38.43034 | -9.17765 | 16327 ft | 406 kts | 206° |
| 2026-05-05 15:00 | 38.40374 | -9.19078 | 17033 ft | 411 kts | 201° |
| 2026-05-05 15:00 | 38.38549 | -9.19803 | 17514 ft | 414 kts | 199° |
| 2026-05-05 15:00 | 38.34836 | -9.21088 | 18468 ft | 418 kts | 198° |
| 2026-05-05 15:00 | 38.31990 | -9.22038 | 19103 ft | 421 kts | 198° |
| 2026-05-05 15:01 | 38.29175 | -9.22996 | 19713 ft | 423 kts | 198° |
| 2026-05-05 15:01 | 38.26308 | -9.23997 | 20339 ft | 426 kts | 198° |
| 2026-05-05 15:01 | 38.23467 | -9.25007 | 20943 ft | 428 kts | 199° |
| 2026-05-05 15:01 | 38.20585 | -9.26042 | 21522 ft | 432 kts | 199° |
| 2026-05-05 15:02 | 38.17699 | -9.27084 | 22091 ft | 435 kts | 199° |
| 2026-05-05 15:02 | 38.14767 | -9.28142 | 22656 ft | 438 kts | 199° |
| 2026-05-05 15:02 | 38.11848 | -9.29194 | 23226 ft | 441 kts | 199° |
| 2026-05-05 15:02 | 38.08878 | -9.30263 | 23761 ft | 444 kts | 199° |
| 2026-05-05 15:03 | 38.05881 | -9.31340 | 24237 ft | 447 kts | 199° |
| 2026-05-05 15:03 | 38.02878 | -9.32417 | 24732 ft | 448 kts | 199° |
| 2026-05-05 15:03 | 37.99889 | -9.33475 | 25241 ft | 450 kts | 198° |
| 2026-05-05 15:03 | 37.96778 | -9.34219 | 25674 ft | 456 kts | 192° |
| 2026-05-05 15:04 | 37.93646 | -9.34628 | 26089 ft | 460 kts | 189° |
| 2026-05-05 15:04 | 37.90425 | -9.34932 | 26524 ft | 463 kts | 189° |
| 2026-05-05 15:04 | 37.87209 | -9.35236 | 26963 ft | 464 kts | 189° |
| 2026-05-05 15:04 | 37.83984 | -9.35583 | 27389 ft | 466 kts | 190° |
| 2026-05-05 15:05 | 37.77529 | -9.36385 | 28184 ft | 469 kts | 191° |
| 2026-05-05 15:05 | 37.74260 | -9.36817 | 28575 ft | 471 kts | 191° |
| 2026-05-05 15:05 | 37.71018 | -9.37247 | 28924 ft | 473 kts | 191° |
| 2026-05-05 15:06 | 37.67733 | -9.37680 | 29277 ft | 475 kts | 192° |
| 2026-05-05 15:06 | 37.64433 | -9.38111 | 29669 ft | 475 kts | 192° |
| 2026-05-05 15:06 | 37.61185 | -9.38532 | 30161 ft | 473 kts | 192° |
| 2026-05-05 15:06 | 37.57971 | -9.39174 | 30561 ft | 463 kts | 200° |
| 2026-05-05 15:07 | 37.54891 | -9.40314 | 30971 ft | 458 kts | 203° |
| 2026-05-05 15:07 | 37.51857 | -9.41595 | 31113 ft | 462 kts | 204° |
| 2026-05-05 15:07 | 37.48793 | -9.42924 | 31115 ft | 462 kts | 204° |
| 2026-05-05 15:08 | 37.42736 | -9.45480 | 31096 ft | 457 kts | 203° |
| 2026-05-05 15:08 | 37.36693 | -9.47921 | 31108 ft | 457 kts | 202° |
| 2026-05-05 15:09 | 37.30656 | -9.50313 | 31096 ft | 458 kts | 202° |
| 2026-05-05 15:09 | 37.24556 | -9.52717 | 31108 ft | 460 kts | 201° |
| 2026-05-05 15:10 | 37.18434 | -9.55128 | 31115 ft | 461 kts | 201° |
| 2026-05-05 15:10 | 37.12338 | -9.57527 | 31122 ft | 462 kts | 201° |
| 2026-05-05 15:11 | 37.06180 | -9.59947 | 31109 ft | 462 kts | 201° |
| 2026-05-05 15:11 | 37.00034 | -9.62357 | 31113 ft | 462 kts | 201° |
| 2026-05-05 15:12 | 36.93925 | -9.64749 | 31114 ft | 462 kts | 201° |
| 2026-05-05 15:12 | 36.87780 | -9.67152 | 31110 ft | 461 kts | 201° |
| 2026-05-05 15:13 | 36.81670 | -9.69537 | 31103 ft | 461 kts | 201° |
| 2026-05-05 15:13 | 36.75556 | -9.71920 | 31119 ft | 462 kts | 201° |
| 2026-05-05 15:14 | 36.69396 | -9.74317 | 31117 ft | 464 kts | 201° |
| 2026-05-05 15:14 | 36.63224 | -9.76714 | 31115 ft | 465 kts | 201° |
| 2026-05-05 15:15 | 36.57034 | -9.79113 | 31101 ft | 465 kts | 201° |
| 2026-05-05 15:15 | 36.50876 | -9.81496 | 31109 ft | 465 kts | 201° |
| 2026-05-05 15:16 | 36.44677 | -9.83892 | 31119 ft | 465 kts | 201° |
| 2026-05-05 15:16 | 36.38504 | -9.86273 | 31122 ft | 465 kts | 201° |
| 2026-05-05 15:17 | 36.32338 | -9.88648 | 31102 ft | 465 kts | 201° |
| 2026-05-05 15:17 | 36.26142 | -9.91030 | 31119 ft | 464 kts | 201° |
| 2026-05-05 15:18 | 36.19991 | -9.93391 | 31118 ft | 463 kts | 201° |
| 2026-05-05 15:18 | 36.13872 | -9.95737 | 31116 ft | 463 kts | 201° |
| 2026-05-05 15:19 | 36.07737 | -9.98086 | 31102 ft | 462 kts | 201° |
| 2026-05-05 15:19 | 36.01564 | -10.00448 | 31119 ft | 462 kts | 202° |
| 2026-05-05 15:20 | 35.95758 | -10.03632 | 31121 ft | 457 kts | 213° |
| 2026-05-05 15:20 | 35.90486 | -10.07969 | 31121 ft | 454 kts | 220° |
| 2026-05-05 15:21 | 35.85478 | -10.12672 | 31120 ft | 455 kts | 220° |
| 2026-05-05 15:21 | 35.80426 | -10.17395 | 31103 ft | 455 kts | 220° |
| 2026-05-05 15:22 | 35.75354 | -10.22104 | 31122 ft | 456 kts | 220° |
| 2026-05-05 15:22 | 35.70274 | -10.26800 | 31124 ft | 457 kts | 220° |
| 2026-05-05 15:23 | 35.65211 | -10.31471 | 31125 ft | 457 kts | 220° |
| 2026-05-05 15:23 | 35.60089 | -10.36189 | 31122 ft | 457 kts | 220° |
| 2026-05-05 15:24 | 35.55046 | -10.40827 | 31125 ft | 457 kts | 220° |
| 2026-05-05 15:24 | 35.49942 | -10.45514 | 31121 ft | 457 kts | 220° |
| 2026-05-05 15:25 | 35.44885 | -10.50151 | 31122 ft | 456 kts | 220° |
| 2026-05-05 15:25 | 35.39792 | -10.54813 | 31125 ft | 456 kts | 220° |
| 2026-05-05 15:26 | 35.34705 | -10.59463 | 31118 ft | 456 kts | 220° |
| 2026-05-05 15:26 | 35.29608 | -10.64113 | 31127 ft | 456 kts | 220° |
| 2026-05-05 15:27 | 35.24528 | -10.68742 | 31122 ft | 457 kts | 219° |
| 2026-05-05 15:27 | 35.19403 | -10.73403 | 31130 ft | 458 kts | 219° |
| 2026-05-05 15:28 | 35.14292 | -10.78045 | 31128 ft | 459 kts | 219° |
| 2026-05-05 15:28 | 35.09152 | -10.82705 | 31121 ft | 460 kts | 219° |
| 2026-05-05 15:29 | 35.04038 | -10.87333 | 31119 ft | 460 kts | 219° |
| 2026-05-05 15:29 | 34.98890 | -10.91985 | 31117 ft | 460 kts | 219° |
| 2026-05-05 15:30 | 34.93744 | -10.96628 | 31127 ft | 460 kts | 219° |
| 2026-05-05 15:30 | 34.88590 | -11.01272 | 31128 ft | 460 kts | 219° |
| 2026-05-05 15:31 | 34.83474 | -11.05873 | 31128 ft | 460 kts | 219° |
| 2026-05-05 15:31 | 34.78322 | -11.10501 | 31125 ft | 460 kts | 219° |
| 2026-05-05 15:32 | 34.73167 | -11.15122 | 31113 ft | 460 kts | 219° |
| 2026-05-05 15:32 | 34.68030 | -11.19723 | 31124 ft | 460 kts | 219° |
| 2026-05-05 15:33 | 34.62864 | -11.24340 | 31125 ft | 460 kts | 219° |
| 2026-05-05 15:33 | 34.57733 | -11.28937 | 31122 ft | 460 kts | 219° |
| 2026-05-05 15:34 | 34.52582 | -11.33560 | 31128 ft | 460 kts | 219° |
| 2026-05-05 15:34 | 34.48297 | -11.37402 | 31125 ft | 460 kts | 219° |
| 2026-05-05 15:35 | 34.43139 | -11.42018 | 31119 ft | 460 kts | 219° |
| 2026-05-05 15:35 | 34.37144 | -11.47373 | 31124 ft | 461 kts | 218° |
| 2026-05-05 15:36 | 34.32843 | -11.51207 | 31123 ft | 461 kts | 218° |
| 2026-05-05 15:36 | 34.27669 | -11.55814 | 31123 ft | 461 kts | 218° |
| 2026-05-05 15:37 | 34.22487 | -11.60421 | 31121 ft | 461 kts | 218° |
| 2026-05-05 15:37 | 34.17338 | -11.64991 | 31108 ft | 462 kts | 218° |
| 2026-05-05 15:38 | 34.12132 | -11.69606 | 31124 ft | 465 kts | 218° |
| 2026-05-05 15:38 | 34.06921 | -11.74217 | 31121 ft | 468 kts | 218° |
| 2026-05-05 15:39 | 34.01642 | -11.78881 | 31120 ft | 470 kts | 218° |
| 2026-05-05 15:39 | 33.96347 | -11.83551 | 31123 ft | 471 kts | 218° |
| 2026-05-05 15:40 | 33.91092 | -11.88179 | 31119 ft | 470 kts | 218° |
| 2026-05-05 15:40 | 33.85827 | -11.92808 | 31133 ft | 469 kts | 218° |
| 2026-05-05 15:41 | 33.80547 | -11.97444 | 31111 ft | 469 kts | 218° |
| 2026-05-05 15:41 | 33.75258 | -12.02080 | 31111 ft | 469 kts | 218° |
| 2026-05-05 15:42 | 33.70008 | -12.06676 | 31129 ft | 469 kts | 218° |
| 2026-05-05 15:42 | 33.64714 | -12.11301 | 31125 ft | 469 kts | 218° |
| 2026-05-05 15:43 | 33.59458 | -12.15887 | 31116 ft | 469 kts | 217° |
| 2026-05-05 15:43 | 33.54162 | -12.20501 | 31119 ft | 469 kts | 217° |
| 2026-05-05 15:44 | 33.48867 | -12.25107 | 31123 ft | 470 kts | 217° |
| 2026-05-05 15:44 | 33.43583 | -12.29695 | 31121 ft | 470 kts | 217° |
| 2026-05-05 15:45 | 33.38285 | -12.34289 | 31106 ft | 471 kts | 217° |
| 2026-05-05 15:45 | 33.33009 | -12.38858 | 31114 ft | 471 kts | 217° |
| 2026-05-05 15:46 | 33.27695 | -12.43452 | 31116 ft | 471 kts | 217° |
| 2026-05-05 15:46 | 33.22376 | -12.48043 | 31121 ft | 472 kts | 217° |
| 2026-05-05 15:47 | 33.17033 | -12.52648 | 31118 ft | 473 kts | 217° |
| 2026-05-05 15:47 | 33.11694 | -12.57242 | 31116 ft | 473 kts | 217° |
| 2026-05-05 15:48 | 33.06379 | -12.61809 | 31112 ft | 473 kts | 217° |
| 2026-05-05 15:48 | 33.01030 | -12.66399 | 31111 ft | 473 kts | 217° |
| 2026-05-05 15:49 | 32.95695 | -12.70969 | 31117 ft | 474 kts | 217° |
| 2026-05-05 15:49 | 32.90326 | -12.75563 | 31116 ft | 474 kts | 217° |
| 2026-05-05 15:50 | 32.84985 | -12.80126 | 31124 ft | 475 kts | 217° |
| 2026-05-05 15:50 | 32.79595 | -12.84701 | 31117 ft | 474 kts | 217° |
| 2026-05-05 15:51 | 32.74221 | -12.89242 | 31112 ft | 474 kts | 217° |
| 2026-05-05 15:51 | 32.68847 | -12.93780 | 31113 ft | 473 kts | 217° |
| 2026-05-05 15:52 | 32.63511 | -12.98283 | 31113 ft | 473 kts | 217° |
| 2026-05-05 15:52 | 32.58148 | -13.02803 | 31112 ft | 473 kts | 217° |
| 2026-05-05 15:53 | 32.52788 | -13.07314 | 31116 ft | 473 kts | 217° |
| 2026-05-05 15:53 | 32.47415 | -13.11828 | 31116 ft | 473 kts | 217° |
| 2026-05-05 15:54 | 32.42076 | -13.16307 | 31098 ft | 472 kts | 216° |
| 2026-05-05 15:54 | 32.36711 | -13.20801 | 31109 ft | 471 kts | 216° |
| 2026-05-05 15:55 | 32.31356 | -13.25281 | 31106 ft | 471 kts | 216° |
| 2026-05-05 15:55 | 32.25992 | -13.29761 | 31110 ft | 471 kts | 216° |
| 2026-05-05 15:56 | 32.20659 | -13.34209 | 31103 ft | 471 kts | 216° |
| 2026-05-05 15:56 | 32.15298 | -13.38673 | 31092 ft | 471 kts | 217° |
| 2026-05-05 15:57 | 32.09960 | -13.43112 | 31099 ft | 471 kts | 216° |
| 2026-05-05 15:57 | 32.04604 | -13.47560 | 31101 ft | 470 kts | 216° |
| 2026-05-05 15:58 | 31.99236 | -13.52011 | 31104 ft | 470 kts | 216° |
| 2026-05-05 15:58 | 31.93917 | -13.56415 | 31104 ft | 470 kts | 216° |
| 2026-05-05 15:59 | 31.88550 | -13.60851 | 31099 ft | 470 kts | 216° |
| 2026-05-05 15:59 | 31.83247 | -13.65228 | 31090 ft | 465 kts | 217° |
| 2026-05-05 16:00 | 31.77957 | -13.69588 | 31093 ft | 461 kts | 217° |
| 2026-05-05 16:00 | 31.72714 | -13.73904 | 31088 ft | 458 kts | 217° |
| 2026-05-05 16:01 | 31.67516 | -13.78179 | 31094 ft | 457 kts | 217° |
| 2026-05-05 16:01 | 31.62298 | -13.82463 | 31093 ft | 458 kts | 217° |
| 2026-05-05 16:02 | 31.57060 | -13.86757 | 31097 ft | 459 kts | 218° |
| 2026-05-05 16:02 | 31.51838 | -13.91032 | 31079 ft | 457 kts | 218° |
| 2026-05-05 16:03 | 31.46648 | -13.95275 | 31076 ft | 455 kts | 218° |
| 2026-05-05 16:03 | 31.41474 | -13.99499 | 31077 ft | 454 kts | 218° |
| 2026-05-05 16:04 | 31.36284 | -14.03732 | 31095 ft | 453 kts | 218° |
| 2026-05-05 16:04 | 31.31102 | -14.07952 | 31094 ft | 453 kts | 218° |
| 2026-05-05 16:05 | 31.25988 | -14.12138 | 31076 ft | 444 kts | 219° |
| 2026-05-05 16:05 | 31.20995 | -14.16243 | 31088 ft | 437 kts | 219° |
| 2026-05-05 16:06 | 31.16039 | -14.20317 | 31083 ft | 438 kts | 219° |
| 2026-05-05 16:06 | 31.11023 | -14.24431 | 31075 ft | 442 kts | 218° |
| 2026-05-05 16:07 | 31.05966 | -14.28569 | 31086 ft | 445 kts | 218° |
| 2026-05-05 16:07 | 31.00902 | -14.32708 | 31084 ft | 448 kts | 218° |
| 2026-05-05 16:08 | 30.95849 | -14.36828 | 31062 ft | 435 kts | 219° |
| 2026-05-05 16:08 | 30.90779 | -14.40596 | 31076 ft | 432 kts | 212° |
| 2026-05-05 16:09 | 30.85259 | -14.43410 | 31078 ft | 440 kts | 204° |
| 2026-05-05 16:09 | 30.79408 | -14.45559 | 31081 ft | 443 kts | 203° |
| 2026-05-05 16:10 | 30.73510 | -14.47699 | 31077 ft | 445 kts | 203° |
| 2026-05-05 16:10 | 30.67678 | -14.49825 | 31066 ft | 439 kts | 204° |
| 2026-05-05 16:11 | 30.61945 | -14.51920 | 31065 ft | 431 kts | 204° |
| 2026-05-05 16:12 | 30.50431 | -14.56157 | 31073 ft | 436 kts | 204° |
| 2026-05-05 16:13 | 30.35965 | -14.61445 | 31053 ft | 429 kts | 204° |
| 2026-05-05 16:13 | 30.30304 | -14.63510 | 31068 ft | 428 kts | 205° |
| 2026-05-05 16:14 | 30.18884 | -14.67680 | 31063 ft | 430 kts | 204° |
| 2026-05-05 16:15 | 30.07507 | -14.71811 | 31047 ft | 423 kts | 205° |
| 2026-05-05 16:16 | 29.96331 | -14.75867 | 31058 ft | 422 kts | 205° |
| 2026-05-05 16:17 | 29.87883 | -14.78927 | 31056 ft | 423 kts | 205° |
| 2026-05-05 16:18 | 29.79455 | -14.81972 | 31057 ft | 424 kts | 205° |
| 2026-05-05 16:19 | 29.71018 | -14.85015 | 31056 ft | 424 kts | 205° |
| 2026-05-05 16:19 | 29.62594 | -14.88047 | 31054 ft | 423 kts | 205° |
| 2026-05-05 16:20 | 29.51351 | -14.92086 | 31058 ft | 422 kts | 205° |
| 2026-05-05 16:22 | 29.37348 | -14.97105 | 31055 ft | 422 kts | 205° |
| 2026-05-05 16:23 | 29.27075 | -15.00777 | 31054 ft | 422 kts | 205° |
| 2026-05-05 16:23 | 29.18686 | -15.03771 | 31037 ft | 422 kts | 205° |
| 2026-05-05 16:24 | 29.13073 | -15.05771 | 31045 ft | 424 kts | 205° |
| 2026-05-05 16:25 | 29.04598 | -15.08787 | 31041 ft | 425 kts | 205° |
| 2026-05-05 16:25 | 28.96123 | -15.11796 | 31009 ft | 425 kts | 204° |
| 2026-05-05 16:26 | 28.84848 | -15.15792 | 31039 ft | 425 kts | 205° |
| 2026-05-05 16:27 | 28.79202 | -15.17790 | 31035 ft | 425 kts | 205° |
| 2026-05-05 16:27 | 28.73559 | -15.19785 | 31035 ft | 425 kts | 205° |
| 2026-05-05 16:28 | 28.67909 | -15.21779 | 31032 ft | 425 kts | 205° |
| 2026-05-05 16:28 | 28.62267 | -15.23769 | 31026 ft | 424 kts | 204° |
| 2026-05-05 16:29 | 28.56637 | -15.25752 | 31033 ft | 424 kts | 204° |
| 2026-05-05 16:29 | 28.50999 | -15.27736 | 31033 ft | 425 kts | 204° |
| 2026-05-05 16:30 | 28.45361 | -15.29717 | 31030 ft | 425 kts | 204° |
| 2026-05-05 16:30 | 28.39718 | -15.31698 | 31030 ft | 425 kts | 204° |
| 2026-05-05 16:31 | 28.34078 | -15.33676 | 31025 ft | 425 kts | 204° |
| 2026-05-05 16:31 | 28.28392 | -15.35668 | 31024 ft | 425 kts | 204° |
| 2026-05-05 16:32 | 28.22772 | -15.37635 | 31025 ft | 426 kts | 204° |
| 2026-05-05 16:32 | 28.17076 | -15.39627 | 31021 ft | 426 kts | 204° |
| 2026-05-05 16:33 | 28.11426 | -15.41610 | 31022 ft | 425 kts | 205° |
| 2026-05-05 16:33 | 28.06045 | -15.44283 | 31003 ft | 419 kts | 213° |
| 2026-05-05 16:34 | 28.01135 | -15.47700 | 31025 ft | 415 kts | 218° |
| 2026-05-05 16:34 | 27.96303 | -15.51278 | 31017 ft | 418 kts | 218° |
| 2026-05-05 16:35 | 27.91394 | -15.54887 | 31032 ft | 421 kts | 217° |
| 2026-05-05 16:35 | 27.86486 | -15.58491 | 31023 ft | 421 kts | 217° |
| 2026-05-05 16:36 | 27.81571 | -15.62091 | 31019 ft | 420 kts | 217° |
| 2026-05-05 16:36 | 27.76686 | -15.65670 | 31023 ft | 419 kts | 217° |
| 2026-05-05 16:37 | 27.71814 | -15.69232 | 30999 ft | 417 kts | 217° |
| 2026-05-05 16:37 | 27.66955 | -15.72786 | 31008 ft | 416 kts | 217° |
| 2026-05-05 16:38 | 27.62095 | -15.76341 | 31003 ft | 416 kts | 217° |
| 2026-05-05 16:38 | 27.57211 | -15.79910 | 31003 ft | 417 kts | 217° |
| 2026-05-05 16:39 | 27.52341 | -15.83465 | 31003 ft | 418 kts | 217° |
| 2026-05-05 16:39 | 27.47472 | -15.87015 | 31003 ft | 418 kts | 217° |
| 2026-05-05 16:40 | 27.42598 | -15.90565 | 30989 ft | 418 kts | 217° |
| 2026-05-05 16:40 | 27.37685 | -15.94139 | 31001 ft | 419 kts | 217° |
| 2026-05-05 16:41 | 27.32804 | -15.97686 | 31006 ft | 419 kts | 217° |
| 2026-05-05 16:41 | 27.27913 | -16.01237 | 31012 ft | 419 kts | 217° |
| 2026-05-05 16:42 | 27.23003 | -16.04798 | 31002 ft | 419 kts | 217° |
| 2026-05-05 16:42 | 27.18109 | -16.08344 | 31003 ft | 419 kts | 217° |
| 2026-05-05 16:43 | 27.13209 | -16.11890 | 31000 ft | 419 kts | 217° |
| 2026-05-05 16:43 | 27.08320 | -16.15424 | 30995 ft | 419 kts | 217° |
| 2026-05-05 16:44 | 27.03427 | -16.18959 | 30999 ft | 419 kts | 217° |
| 2026-05-05 16:44 | 26.98497 | -16.22516 | 31004 ft | 420 kts | 217° |
| 2026-05-05 16:45 | 26.93594 | -16.26050 | 31002 ft | 420 kts | 217° |
| 2026-05-05 16:45 | 26.88674 | -16.29592 | 31003 ft | 421 kts | 217° |
| 2026-05-05 16:46 | 26.83755 | -16.33115 | 31001 ft | 421 kts | 217° |
| 2026-05-05 16:46 | 26.78826 | -16.36638 | 31011 ft | 421 kts | 217° |
| 2026-05-05 16:47 | 26.73868 | -16.40181 | 31003 ft | 421 kts | 217° |
| 2026-05-05 16:47 | 26.68950 | -16.43693 | 31002 ft | 421 kts | 217° |
| 2026-05-05 16:48 | 26.64013 | -16.47215 | 30999 ft | 420 kts | 217° |
| 2026-05-05 16:48 | 26.59075 | -16.50734 | 30999 ft | 420 kts | 217° |
| 2026-05-05 16:49 | 26.54150 | -16.54241 | 31004 ft | 420 kts | 217° |
| 2026-05-05 16:49 | 26.49227 | -16.57742 | 31005 ft | 420 kts | 217° |
| 2026-05-05 16:50 | 26.44306 | -16.61238 | 30990 ft | 420 kts | 217° |
| 2026-05-05 16:50 | 26.39322 | -16.64777 | 31338 ft | 424 kts | 217° |
| 2026-05-05 16:51 | 26.36863 | -16.66519 | 31739 ft | 421 kts | 217° |
| 2026-05-05 16:51 | 26.34379 | -16.68280 | 32024 ft | 422 kts | 217° |
| 2026-05-05 16:51 | 26.29424 | -16.71790 | 31995 ft | 420 kts | 217° |
| 2026-05-05 16:52 | 26.24522 | -16.75259 | 31998 ft | 417 kts | 217° |
| 2026-05-05 16:52 | 26.19638 | -16.78713 | 31998 ft | 416 kts | 217° |
| 2026-05-05 16:53 | 26.14736 | -16.82183 | 31988 ft | 417 kts | 217° |
| 2026-05-05 16:53 | 26.09839 | -16.85654 | 31996 ft | 418 kts | 217° |
| 2026-05-05 16:54 | 26.04927 | -16.89132 | 31996 ft | 420 kts | 217° |
| 2026-05-05 16:54 | 25.99995 | -16.92621 | 31995 ft | 421 kts | 217° |
| 2026-05-05 16:55 | 25.95051 | -16.96114 | 31992 ft | 422 kts | 216° |
| 2026-05-05 16:55 | 25.90090 | -16.99614 | 31991 ft | 422 kts | 216° |
| 2026-05-05 16:56 | 25.85152 | -17.03095 | 31991 ft | 421 kts | 216° |
| 2026-05-05 16:56 | 25.80184 | -17.06594 | 31989 ft | 421 kts | 216° |
| 2026-05-05 16:57 | 25.75250 | -17.10067 | 31993 ft | 421 kts | 216° |
| 2026-05-05 16:57 | 25.70297 | -17.13548 | 31988 ft | 422 kts | 216° |
| 2026-05-05 16:58 | 25.65346 | -17.17025 | 31989 ft | 422 kts | 216° |
| 2026-05-05 16:58 | 25.60385 | -17.20505 | 31993 ft | 422 kts | 216° |
| 2026-05-05 16:59 | 25.55413 | -17.23990 | 31989 ft | 422 kts | 216° |
| 2026-05-05 16:59 | 25.50456 | -17.27461 | 31983 ft | 422 kts | 216° |
| 2026-05-05 17:00 | 25.45500 | -17.30928 | 31987 ft | 423 kts | 216° |
| 2026-05-05 17:00 | 25.40501 | -17.34421 | 31994 ft | 424 kts | 216° |
| 2026-05-05 17:01 | 25.35523 | -17.37896 | 31992 ft | 425 kts | 216° |
| 2026-05-05 17:01 | 25.30521 | -17.41384 | 31995 ft | 425 kts | 216° |
| 2026-05-05 17:02 | 25.25517 | -17.44870 | 31989 ft | 425 kts | 216° |
| 2026-05-05 17:02 | 25.20535 | -17.48338 | 31989 ft | 424 kts | 216° |
| 2026-05-05 17:03 | 25.15527 | -17.51821 | 31976 ft | 425 kts | 216° |
| 2026-05-05 17:03 | 25.10517 | -17.55302 | 31982 ft | 426 kts | 216° |
| 2026-05-05 17:04 | 25.05505 | -17.58781 | 31980 ft | 427 kts | 216° |
| 2026-05-05 17:04 | 25.00481 | -17.62265 | 31981 ft | 428 kts | 216° |
| 2026-05-05 17:05 | 24.95437 | -17.65752 | 31984 ft | 428 kts | 216° |
| 2026-05-05 17:05 | 24.90370 | -17.69245 | 31977 ft | 428 kts | 216° |
| 2026-05-05 17:06 | 24.85329 | -17.72719 | 31959 ft | 428 kts | 216° |
| 2026-05-05 17:06 | 24.80278 | -17.76199 | 31982 ft | 429 kts | 216° |
| 2026-05-05 17:07 | 24.75228 | -17.79675 | 31973 ft | 430 kts | 216° |
| 2026-05-05 17:07 | 24.70161 | -17.83159 | 31976 ft | 430 kts | 216° |
| 2026-05-05 17:08 | 24.65068 | -17.86657 | 31976 ft | 430 kts | 216° |
| 2026-05-05 17:08 | 24.59978 | -17.90150 | 31976 ft | 430 kts | 216° |
| 2026-05-05 17:09 | 24.54940 | -17.93604 | 31974 ft | 430 kts | 216° |
| 2026-05-05 17:09 | 24.49854 | -17.97087 | 31971 ft | 430 kts | 216° |
| 2026-05-05 17:10 | 24.44766 | -18.00569 | 31975 ft | 431 kts | 216° |
| 2026-05-05 17:10 | 24.40550 | -18.03451 | 31977 ft | 431 kts | 216° |
| 2026-05-05 17:11 | 24.35429 | -18.06949 | 31973 ft | 432 kts | 216° |
| 2026-05-05 17:11 | 24.30330 | -18.10429 | 31984 ft | 432 kts | 216° |
| 2026-05-05 17:12 | 24.25234 | -18.13903 | 31975 ft | 432 kts | 216° |
| 2026-05-05 17:12 | 24.20160 | -18.17358 | 31957 ft | 432 kts | 216° |
| 2026-05-05 17:13 | 24.15045 | -18.20839 | 31970 ft | 431 kts | 216° |
| 2026-05-05 17:13 | 24.09949 | -18.24303 | 31970 ft | 431 kts | 216° |
| 2026-05-05 17:14 | 24.04854 | -18.27763 | 31972 ft | 431 kts | 216° |
| 2026-05-05 17:14 | 23.99755 | -18.31223 | 31971 ft | 432 kts | 216° |
| 2026-05-05 17:15 | 23.94653 | -18.34682 | 31973 ft | 432 kts | 216° |
| 2026-05-05 17:15 | 23.89529 | -18.38151 | 31970 ft | 432 kts | 216° |
| 2026-05-05 17:16 | 23.84443 | -18.41593 | 31972 ft | 432 kts | 216° |
| 2026-05-05 17:16 | 23.79347 | -18.45037 | 31971 ft | 432 kts | 216° |
| 2026-05-05 17:17 | 23.74200 | -18.48513 | 31972 ft | 433 kts | 216° |
| 2026-05-05 17:17 | 23.69092 | -18.51960 | 31970 ft | 433 kts | 216° |
| 2026-05-05 17:18 | 23.63975 | -18.55409 | 31974 ft | 434 kts | 216° |
| 2026-05-05 17:18 | 23.58834 | -18.58872 | 31970 ft | 434 kts | 216° |
| 2026-05-05 17:19 | 23.53710 | -18.62318 | 31969 ft | 434 kts | 216° |
| 2026-05-05 17:19 | 23.48558 | -18.65781 | 31967 ft | 433 kts | 215° |
| 2026-05-05 17:20 | 23.43446 | -18.69214 | 31967 ft | 433 kts | 215° |
| 2026-05-05 17:20 | 23.38328 | -18.72648 | 31972 ft | 433 kts | 215° |
| 2026-05-05 17:21 | 23.33170 | -18.76106 | 31970 ft | 433 kts | 215° |
| 2026-05-05 17:22 | 23.25508 | -18.81236 | 31967 ft | 433 kts | 215° |
| 2026-05-05 17:22 | 23.20358 | -18.84681 | 31954 ft | 433 kts | 216° |
| 2026-05-05 17:23 | 23.15249 | -18.88094 | 31966 ft | 433 kts | 216° |
| 2026-05-05 17:23 | 23.10122 | -18.91517 | 31968 ft | 433 kts | 215° |
| 2026-05-05 17:24 | 23.04996 | -18.94937 | 31971 ft | 433 kts | 215° |
| 2026-05-05 17:24 | 22.99841 | -18.98372 | 31969 ft | 433 kts | 215° |
| 2026-05-05 17:25 | 22.94710 | -19.01788 | 31971 ft | 434 kts | 215° |
| 2026-05-05 17:25 | 22.89570 | -19.05206 | 31973 ft | 434 kts | 215° |
| 2026-05-05 17:26 | 22.84438 | -19.08617 | 31966 ft | 433 kts | 216° |
| 2026-05-05 17:26 | 22.79279 | -19.12042 | 31983 ft | 433 kts | 215° |
| 2026-05-05 17:27 | 22.74163 | -19.15436 | 31968 ft | 434 kts | 215° |
| 2026-05-05 17:27 | 22.69008 | -19.18853 | 31968 ft | 435 kts | 215° |
| 2026-05-05 17:28 | 22.63843 | -19.22273 | 31968 ft | 435 kts | 215° |
| 2026-05-05 17:28 | 22.58685 | -19.25686 | 31974 ft | 436 kts | 215° |
| 2026-05-05 17:29 | 22.53523 | -19.29098 | 31953 ft | 435 kts | 215° |
| 2026-05-05 17:29 | 22.48338 | -19.32523 | 31963 ft | 435 kts | 215° |
| 2026-05-05 17:30 | 22.43185 | -19.35922 | 31964 ft | 434 kts | 215° |
| 2026-05-05 17:30 | 22.38044 | -19.39312 | 31968 ft | 434 kts | 215° |
| 2026-05-05 17:31 | 22.32870 | -19.42721 | 31965 ft | 434 kts | 215° |
| 2026-05-05 17:31 | 22.27735 | -19.46100 | 31973 ft | 434 kts | 215° |
| 2026-05-05 17:32 | 22.22570 | -19.49498 | 31962 ft | 435 kts | 215° |
| 2026-05-05 17:32 | 22.17386 | -19.52903 | 31961 ft | 435 kts | 216° |
| 2026-05-05 17:33 | 22.12225 | -19.56293 | 31969 ft | 435 kts | 216° |
| 2026-05-05 17:33 | 22.07051 | -19.59686 | 31966 ft | 435 kts | 216° |
| 2026-05-05 17:34 | 22.01886 | -19.63069 | 31963 ft | 435 kts | 216° |
| 2026-05-05 17:34 | 21.96725 | -19.66448 | 31967 ft | 435 kts | 216° |
| 2026-05-05 17:35 | 21.91559 | -19.69828 | 31966 ft | 435 kts | 216° |
| 2026-05-05 17:35 | 21.86366 | -19.73222 | 31955 ft | 434 kts | 216° |
| 2026-05-05 17:36 | 21.81202 | -19.76596 | 31967 ft | 434 kts | 216° |
| 2026-05-05 17:36 | 21.76051 | -19.79958 | 31964 ft | 433 kts | 216° |
| 2026-05-05 17:37 | 21.70890 | -19.83325 | 31968 ft | 434 kts | 216° |
| 2026-05-05 17:37 | 21.65724 | -19.86691 | 31969 ft | 435 kts | 216° |
| 2026-05-05 17:38 | 21.60555 | -19.90057 | 31967 ft | 435 kts | 216° |
| 2026-05-05 17:38 | 21.55389 | -19.93417 | 31969 ft | 436 kts | 216° |
| 2026-05-05 17:39 | 21.50209 | -19.96783 | 31958 ft | 435 kts | 216° |
| 2026-05-05 17:39 | 21.45031 | -20.00146 | 31959 ft | 434 kts | 216° |
| 2026-05-05 17:40 | 21.39848 | -20.03509 | 31965 ft | 434 kts | 216° |
| 2026-05-05 17:40 | 21.34694 | -20.06851 | 31964 ft | 434 kts | 216° |
| 2026-05-05 17:41 | 21.29535 | -20.10193 | 31970 ft | 434 kts | 216° |
| 2026-05-05 17:41 | 21.24348 | -20.13550 | 31970 ft | 434 kts | 216° |
| 2026-05-05 17:42 | 21.19179 | -20.16893 | 31956 ft | 434 kts | 216° |
| 2026-05-05 17:42 | 21.14012 | -20.20232 | 31980 ft | 435 kts | 216° |
| 2026-05-05 17:43 | 21.08840 | -20.23571 | 31981 ft | 435 kts | 216° |
| 2026-05-05 17:43 | 21.03640 | -20.26926 | 31985 ft | 436 kts | 216° |
| 2026-05-05 17:44 | 20.98456 | -20.30268 | 31983 ft | 436 kts | 216° |
| 2026-05-05 17:44 | 20.93264 | -20.33612 | 31964 ft | 436 kts | 216° |
| 2026-05-05 17:45 | 20.88069 | -20.36954 | 31980 ft | 436 kts | 216° |
| 2026-05-05 17:45 | 20.82890 | -20.40285 | 31970 ft | 436 kts | 216° |
| 2026-05-05 17:46 | 20.77694 | -20.43624 | 31977 ft | 436 kts | 216° |
| 2026-05-05 17:46 | 20.73347 | -20.46414 | 31978 ft | 437 kts | 216° |